createdAt,value
2022-09-27T00:01:13.625Z,11.97
2022-09-27T00:03:41.179Z,11.94
2022-09-27T00:06:20.920Z,11.96
2022-09-27T00:08:47.625Z,11.92
2022-09-27T00:11:35.600Z,11.91
2022-09-27T00:14:02.792Z,11.98
2022-09-27T00:16:31.845Z,12.04
2022-09-27T00:19:00.332Z,12.04
2022-09-27T00:21:27.197Z,12.01
2022-09-27T00:23:54.237Z,11.97
2022-09-27T00:26:21.102Z,11.95
2022-09-27T00:28:47.700Z,11.92
2022-09-27T00:31:29.820Z,11.95
2022-09-27T00:33:59.085Z,11.99
2022-09-27T00:36:27.621Z,12.03
2022-09-27T00:38:55.340Z,11.99
2022-09-27T00:41:26.145Z,12.03
2022-09-27T00:43:55.399Z,12.07
2022-09-27T00:46:31.746Z,12.07
2022-09-27T00:49:17.565Z,12.11
2022-09-27T00:51:48.134Z,12.09
2022-09-27T00:54:17.343Z,12.10
2022-09-27T00:56:45.418Z,12.15
2022-09-27T00:59:19.501Z,12.15
2022-09-27T01:01:46.534Z,12.09
2022-09-27T01:04:18.307Z,12.12
2022-09-27T01:06:45.451Z,12.04
2022-09-27T01:09:12.904Z,12.04
2022-09-27T01:11:57.920Z,12.07
2022-09-27T01:15:13.870Z,12.08
2022-09-27T01:18:11.270Z,12.08
2022-09-27T01:21:15.589Z,12.09
2022-09-27T01:24:00.377Z,12.01
2022-09-27T01:27:12.880Z,12.00
2022-09-27T01:30:20.631Z,11.96
2022-09-27T01:32:56.437Z,11.89
2022-09-27T01:36:06.303Z,11.82
2022-09-27T01:39:10.248Z,11.81
2022-09-27T01:41:53.659Z,11.85
2022-09-27T01:44:41.498Z,11.82
2022-09-27T01:47:15.305Z,11.80
2022-09-27T01:49:53.184Z,11.79
2022-09-27T01:52:27.718Z,11.80
2022-09-27T01:54:58.867Z,11.77
2022-09-27T01:57:31.401Z,11.79
2022-09-27T02:00:05.828Z,11.80
2022-09-27T02:02:36.699Z,11.81
2022-09-27T02:05:07.290Z,11.81
2022-09-27T02:07:44.638Z,11.81
2022-09-27T02:10:18.179Z,11.81
2022-09-27T02:12:57.478Z,11.85
2022-09-27T02:15:27.019Z,11.89
2022-09-27T02:18:13.767Z,11.88
2022-09-27T02:20:43.571Z,11.91
2022-09-27T02:23:55.861Z,11.82
2022-09-27T02:26:36.087Z,11.77
2022-09-27T02:29:17.410Z,11.66
2022-09-27T02:31:44.307Z,11.64
2022-09-27T02:34:24.045Z,11.65
2022-09-27T02:36:53.530Z,11.66
2022-09-27T02:39:21.005Z,11.71
2022-09-27T02:41:47.845Z,11.72
2022-09-27T02:44:17.275Z,11.73
2022-09-27T02:47:38.439Z,11.73
2022-09-27T02:50:40.047Z,11.71
2022-09-27T02:53:18.086Z,11.73
2022-09-27T02:56:31.705Z,11.72
2022-09-27T02:59:28.661Z,11.68
2022-09-27T03:02:15.996Z,11.69
2022-09-27T03:04:54.340Z,11.64
2022-09-27T03:07:22.294Z,11.69
2022-09-27T03:09:54.035Z,11.72
2022-09-27T03:12:25.972Z,11.71
2022-09-27T03:15:01.528Z,11.66
2022-09-27T03:17:28.245Z,11.59
2022-09-27T03:19:56.416Z,11.46
2022-09-27T03:22:23.130Z,11.37
2022-09-27T03:24:49.830Z,11.33
2022-09-27T03:27:16.551Z,11.31
2022-09-27T03:29:43.188Z,11.33
2022-09-27T03:32:10.289Z,11.33
2022-09-27T03:34:37.013Z,11.42
2022-09-27T03:37:03.701Z,11.44
2022-09-27T03:39:30.559Z,11.45
2022-09-27T03:41:57.546Z,11.48
2022-09-27T03:44:24.278Z,11.47
2022-09-27T03:46:50.977Z,11.44
2022-09-27T03:49:17.648Z,11.41
2022-09-27T03:51:44.361Z,11.39
2022-09-27T03:54:11.118Z,11.38
2022-09-27T03:56:37.990Z,11.37
2022-09-27T03:59:04.700Z,11.36
2022-09-27T04:01:31.474Z,11.34
2022-09-27T04:03:58.305Z,11.37
2022-09-27T04:06:27.085Z,11.32
2022-09-27T04:08:54.202Z,11.31
2022-09-27T04:11:21.590Z,11.37
2022-09-27T04:13:49.226Z,11.39
2022-09-27T04:16:16.619Z,11.37
2022-09-27T04:18:43.741Z,11.38
2022-09-27T04:21:10.617Z,11.38
2022-09-27T04:23:37.318Z,11.35
2022-09-27T04:26:04.138Z,11.33
2022-09-27T04:28:31.852Z,11.30
2022-09-27T04:30:58.606Z,11.33
2022-09-27T04:33:25.412Z,11.30
2022-09-27T04:36:10.405Z,11.30
2022-09-27T04:38:37.012Z,11.27
2022-09-27T04:41:03.805Z,11.25
2022-09-27T04:43:30.818Z,11.30
2022-09-27T04:45:57.570Z,11.32
2022-09-27T04:48:24.607Z,11.33
2022-09-27T04:50:58.896Z,11.29
2022-09-27T04:53:25.983Z,11.28
2022-09-27T04:55:54.500Z,11.26
2022-09-27T04:58:22.277Z,11.22
2022-09-27T05:00:51.754Z,11.20
2022-09-27T05:03:19.458Z,11.14
2022-09-27T05:05:46.181Z,11.12
2022-09-27T05:08:12.965Z,11.13
2022-09-27T05:10:39.587Z,11.16
2022-09-27T05:13:06.621Z,11.16
2022-09-27T05:15:34.443Z,11.15
2022-09-27T05:18:01.130Z,11.16
2022-09-27T05:20:28.053Z,11.16
2022-09-27T05:22:54.778Z,11.20
2022-09-27T05:25:21.421Z,11.21
2022-09-27T05:27:49.402Z,11.17
2022-09-27T05:30:16.132Z,11.16
2022-09-27T05:32:48.857Z,11.19
2022-09-27T05:35:17.274Z,11.15
2022-09-27T05:37:43.963Z,11.12
2022-09-27T05:40:29.317Z,11.13
2022-09-27T05:42:57.687Z,11.15
2022-09-27T05:45:25.382Z,11.16
2022-09-27T05:47:54.126Z,11.19
2022-09-27T05:50:20.819Z,11.15
2022-09-27T05:52:48.201Z,11.07
2022-09-27T05:55:15.454Z,10.96
2022-09-27T05:57:42.170Z,10.79
2022-09-27T06:00:10.521Z,10.68
2022-09-27T06:02:37.288Z,10.67
2022-09-27T06:05:04.161Z,10.62
2022-09-27T06:07:32.163Z,10.58
2022-09-27T06:09:58.848Z,10.54
2022-09-27T06:12:25.486Z,10.55
2022-09-27T06:14:52.124Z,10.60
2022-09-27T06:17:18.778Z,10.58
2022-09-27T06:19:47.694Z,10.63
2022-09-27T06:22:14.530Z,10.65
2022-09-27T06:24:41.751Z,10.68
2022-09-27T06:27:08.475Z,10.65
2022-09-27T06:29:35.273Z,10.65
2022-09-27T06:32:02.387Z,10.63
2022-09-27T06:34:29.026Z,10.71
2022-09-27T06:36:57.234Z,10.83
2022-09-27T06:39:23.889Z,10.87
2022-09-27T06:41:56.483Z,10.93
2022-09-27T06:44:24.421Z,10.99
2022-09-27T06:46:52.962Z,11.01
2022-09-27T06:49:20.167Z,11.10
2022-09-27T06:51:46.815Z,11.14
2022-09-27T06:54:13.450Z,11.02
2022-09-27T06:56:40.411Z,10.95
2022-09-27T06:59:25.357Z,10.94
2022-09-27T07:01:52.916Z,11.05
2022-09-27T07:04:19.749Z,11.18
2022-09-27T07:06:46.456Z,11.25
2022-09-27T07:09:13.237Z,11.25
2022-09-27T07:11:40.255Z,11.16
2022-09-27T07:14:08.177Z,11.21
2022-09-27T07:16:34.991Z,11.25
2022-09-27T07:19:02.193Z,11.27
2022-09-27T07:21:28.903Z,11.27
2022-09-27T07:23:55.628Z,11.30
2022-09-27T07:26:22.824Z,11.19
2022-09-27T07:28:49.535Z,11.18
2022-09-27T07:31:17.279Z,11.17
2022-09-27T07:33:44.086Z,11.14
2022-09-27T07:36:12.064Z,11.12
2022-09-27T07:38:38.784Z,11.21
2022-09-27T07:41:07.328Z,11.28
2022-09-27T07:43:34.290Z,11.28
2022-09-27T07:46:01.057Z,11.25
2022-09-27T07:48:28.322Z,11.29
2022-09-27T07:50:55.008Z,11.28
2022-09-27T07:53:21.728Z,11.33
2022-09-27T07:55:53.245Z,11.28
2022-09-27T07:58:20.995Z,11.31
2022-09-27T08:00:47.836Z,11.33
2022-09-27T08:03:16.255Z,11.39
2022-09-27T08:05:47.457Z,11.44
2022-09-27T08:08:16.458Z,11.46
2022-09-27T08:10:44.441Z,11.62
2022-09-27T08:13:11.780Z,11.71
2022-09-27T08:15:41.589Z,11.69
2022-09-27T08:18:09.611Z,11.69
2022-09-27T08:20:36.395Z,11.71
2022-09-27T08:23:04.338Z,11.75
2022-09-27T08:25:31.258Z,11.73
2022-09-27T08:27:59.810Z,11.76
2022-09-27T08:30:27.639Z,11.86
2022-09-27T08:32:58.377Z,11.97
2022-09-27T08:35:25.478Z,12.13
2022-09-27T08:37:57.293Z,12.19
2022-09-27T08:40:31.672Z,12.29
2022-09-27T08:44:00.608Z,12.44
2022-09-27T08:47:14.067Z,12.64
2022-09-27T08:49:49.361Z,12.57
2022-09-27T08:52:27.567Z,12.55
2022-09-27T08:54:58.493Z,12.54
2022-09-27T08:57:26.156Z,12.73
2022-09-27T09:00:07.546Z,12.66
2022-09-27T09:02:36.375Z,12.56
2022-09-27T09:05:14.354Z,12.68
2022-09-27T09:07:54.493Z,12.70
2022-09-27T09:11:21.249Z,12.56
2022-09-27T09:14:23.816Z,12.53
2022-09-27T09:17:22.579Z,12.60
2022-09-27T09:20:17.640Z,12.80
2022-09-27T09:23:03.265Z,12.95
2022-09-27T09:25:57.793Z,12.83
2022-09-27T09:29:02.074Z,12.87
2022-09-27T09:31:43.918Z,12.89
2022-09-27T09:34:27.082Z,12.82
2022-09-27T09:37:08.677Z,12.79
2022-09-27T09:39:47.311Z,12.76
2022-09-27T09:42:18.647Z,12.82
2022-09-27T09:45:20.322Z,12.69
2022-09-27T09:48:20.935Z,12.65
2022-09-27T09:50:51.215Z,12.68
2022-09-27T09:54:01.959Z,12.75
2022-09-27T09:56:33.079Z,12.87
2022-09-27T09:59:05.067Z,12.95
2022-09-27T10:01:40.714Z,13.01
2022-09-27T10:04:07.540Z,13.05
2022-09-27T10:06:34.304Z,12.90
2022-09-27T10:09:01.055Z,12.86
2022-09-27T10:11:37.035Z,12.95
2022-09-27T10:14:03.757Z,13.04
2022-09-27T10:16:30.638Z,13.13
2022-09-27T10:19:02.336Z,13.11
2022-09-27T10:21:30.446Z,13.16
2022-09-27T10:24:25.574Z,13.22
2022-09-27T10:26:59.501Z,13.34
2022-09-27T10:29:36.998Z,13.44
2022-09-27T10:32:18.648Z,13.64
2022-09-27T10:34:45.567Z,13.69
2022-09-27T10:37:18.698Z,13.53
2022-09-27T10:39:47.654Z,13.49
2022-09-27T10:42:38.681Z,13.44
2022-09-27T10:45:34.909Z,13.35
2022-09-27T10:48:02.423Z,13.22
2022-09-27T10:50:49.592Z,13.14
2022-09-27T10:53:20.587Z,13.13
2022-09-27T10:55:50.119Z,13.32
2022-09-27T10:58:27.918Z,13.47
2022-09-27T11:01:09.634Z,13.45
2022-09-27T11:03:49.469Z,13.41
2022-09-27T11:06:45.335Z,13.57
2022-09-27T11:09:30.292Z,13.55
2022-09-27T11:12:10.361Z,13.66
2022-09-27T11:14:37.294Z,13.65
2022-09-27T11:17:46.917Z,13.48
2022-09-27T11:20:32.475Z,13.39
2022-09-27T11:23:43.668Z,12.88
2022-09-27T11:26:37.454Z,12.34
2022-09-27T11:30:08.612Z,11.84
2022-09-27T11:33:07.395Z,11.58
2022-09-27T11:36:01.005Z,11.72
2022-09-27T11:41:58.440Z,11.95
2022-09-27T11:47:38.391Z,12.28
2022-09-27T11:56:48.848Z,12.73
2022-09-27T12:00:02.702Z,12.72
2022-09-27T12:02:52.743Z,12.72
2022-09-27T12:06:13.511Z,12.42
2022-09-27T12:09:08.590Z,12.30
2022-09-27T12:11:50.516Z,12.31
2022-09-27T12:14:41.047Z,12.36
2022-09-27T12:17:16.354Z,12.42
2022-09-27T12:19:50.865Z,12.51
2022-09-27T12:22:46.723Z,12.71
2022-09-27T12:25:20.829Z,12.83
2022-09-27T12:27:58.155Z,12.88
2022-09-27T12:30:24.861Z,12.69
2022-09-27T12:33:23.378Z,12.60
2022-09-27T12:35:54.163Z,12.64
2022-09-27T12:38:35.905Z,12.63
2022-09-27T12:41:06.014Z,12.64
2022-09-27T12:43:32.765Z,12.55
2022-09-27T12:46:34.940Z,12.61
2022-09-27T12:49:26.770Z,12.68
2022-09-27T12:52:03.856Z,12.61
2022-09-27T12:55:00.775Z,12.57
2022-09-27T12:58:11.407Z,12.59
2022-09-27T13:01:09.259Z,12.69
2022-09-27T13:03:56.010Z,12.83
2022-09-27T13:06:58.608Z,12.86
2022-09-27T13:10:00.229Z,12.85
2022-09-27T13:12:29.454Z,12.82
2022-09-27T13:15:17.406Z,12.77
2022-09-27T13:17:56.392Z,12.86
2022-09-27T13:23:53.081Z,12.80
2022-09-27T13:35:24.396Z,13.02
2022-09-27T13:37:59.083Z,12.95
2022-09-27T13:40:30.976Z,12.99
2022-09-27T13:43:17.676Z,12.89
2022-09-27T13:45:57.334Z,12.78
2022-09-27T13:48:55.726Z,12.77
2022-09-27T13:51:56.762Z,12.65
2022-09-27T13:54:55.600Z,12.64
2022-09-27T13:57:56.786Z,12.69
2022-09-27T14:00:32.818Z,12.65
2022-09-27T14:03:46.051Z,12.50
2022-09-27T14:06:20.433Z,12.45
2022-09-27T14:08:53.433Z,12.28
2022-09-27T14:11:33.654Z,12.21
2022-09-27T14:14:02.250Z,12.16
2022-09-27T14:16:34.154Z,12.19
2022-09-27T14:19:02.583Z,12.16
2022-09-27T14:21:37.763Z,12.11
2022-09-27T14:24:42.504Z,12.11
2022-09-27T14:27:38.764Z,12.10
2022-09-27T14:30:15.578Z,12.17
2022-09-27T14:32:54.950Z,12.14
2022-09-27T14:35:46.844Z,12.11
2022-09-27T14:38:36.759Z,12.13
2022-09-27T14:41:06.745Z,12.19
2022-09-27T14:43:35.728Z,12.16
2022-09-27T14:46:07.076Z,12.12
2022-09-27T14:48:39.054Z,12.18
2022-09-27T14:51:20.951Z,12.17
2022-09-27T14:54:01.120Z,12.25
2022-09-27T14:56:33.953Z,12.15
2022-09-27T14:59:11.424Z,12.29
2022-09-27T15:01:40.072Z,12.33
2022-09-27T15:04:13.553Z,12.36
2022-09-27T15:06:40.986Z,12.36
2022-09-27T15:09:10.307Z,12.32
2022-09-27T15:11:39.553Z,12.32
2022-09-27T15:14:07.719Z,12.35
2022-09-27T15:16:34.622Z,12.38
2022-09-27T15:19:22.315Z,12.42
2022-09-27T15:21:50.074Z,12.47
2022-09-27T15:24:36.388Z,12.51
2022-09-27T15:27:03.505Z,12.40
2022-09-27T15:29:30.127Z,12.34
2022-09-27T15:32:03.502Z,12.31
2022-09-27T15:34:32.849Z,12.28
2022-09-27T15:37:03.521Z,12.08
2022-09-27T15:39:38.172Z,12.02
2022-09-27T15:42:19.547Z,11.86
2022-09-27T15:44:52.095Z,11.75
2022-09-27T15:47:54.055Z,11.75
2022-09-27T15:50:33.425Z,11.69
2022-09-27T15:53:02.853Z,11.67
2022-09-27T15:55:32.384Z,11.62
2022-09-27T15:58:20.361Z,11.52
2022-09-27T16:01:05.800Z,11.41
2022-09-27T16:03:33.244Z,11.36
2022-09-27T16:06:02.212Z,11.31
2022-09-27T16:08:33.330Z,11.32
2022-09-27T16:11:03.349Z,11.34
2022-09-27T16:13:32.927Z,11.27
2022-09-27T16:16:01.977Z,11.23
2022-09-27T16:18:30.770Z,11.22
2022-09-27T16:20:58.889Z,11.26
2022-09-27T16:23:25.934Z,11.21
2022-09-27T16:25:53.656Z,11.15
2022-09-27T16:28:20.562Z,11.19
2022-09-27T16:30:48.126Z,11.24
2022-09-27T16:33:15.233Z,11.15
2022-09-27T16:35:41.784Z,11.16
2022-09-27T16:38:08.480Z,11.12
2022-09-27T16:40:36.614Z,11.11
2022-09-27T16:43:07.081Z,11.14
2022-09-27T16:45:36.452Z,11.14
2022-09-27T16:48:03.564Z,11.15
2022-09-27T16:50:48.759Z,11.07
2022-09-27T16:53:15.501Z,11.06
2022-09-27T16:55:42.296Z,11.05
2022-09-27T16:58:08.949Z,10.97
2022-09-27T17:00:35.879Z,10.85
2022-09-27T17:03:02.632Z,10.80
2022-09-27T17:05:29.290Z,10.78
2022-09-27T17:07:55.997Z,10.79
2022-09-27T17:10:23.227Z,10.73
2022-09-27T17:12:50.253Z,10.75
2022-09-27T17:15:17.834Z,10.74
2022-09-27T17:17:45.361Z,10.74
2022-09-27T17:20:12.705Z,10.71
2022-09-27T17:22:39.247Z,10.71
2022-09-27T17:25:06.287Z,10.75
2022-09-27T17:27:32.883Z,10.78
2022-09-27T17:29:59.607Z,10.68
2022-09-27T17:32:26.457Z,10.63
2022-09-27T17:34:53.310Z,10.57
2022-09-27T17:37:19.963Z,10.50
2022-09-27T17:39:46.543Z,10.44
2022-09-27T17:42:13.266Z,10.41
2022-09-27T17:44:40.126Z,10.37
2022-09-27T17:47:25.350Z,10.29
2022-09-27T17:50:10.631Z,10.25
2022-09-27T17:52:37.550Z,10.26
2022-09-27T17:55:04.790Z,10.26
2022-09-27T17:57:31.858Z,10.22
2022-09-27T17:59:58.487Z,10.21
2022-09-27T18:02:25.656Z,10.14
2022-09-27T18:04:52.489Z,10.14
2022-09-27T18:07:19.867Z,10.18
2022-09-27T18:09:46.630Z,10.19
2022-09-27T18:12:13.761Z,10.17
2022-09-27T18:14:40.447Z,10.13
2022-09-27T18:17:07.152Z,10.11
2022-09-27T18:19:33.959Z,10.13
2022-09-27T18:22:00.872Z,10.16
2022-09-27T18:24:27.580Z,10.23
2022-09-27T18:26:55.818Z,10.22
2022-09-27T18:29:23.146Z,10.19
2022-09-27T18:31:49.980Z,10.16
2022-09-27T18:34:20.023Z,10.04
2022-09-27T18:36:46.875Z,10.09
2022-09-27T18:39:17.541Z,10.10
2022-09-27T18:41:45.328Z,10.13
2022-09-27T18:44:13.956Z,10.17
2022-09-27T18:46:40.658Z,10.25
2022-09-27T18:49:10.776Z,10.24
2022-09-27T18:51:41.984Z,10.31
2022-09-27T18:54:14.336Z,10.35
2022-09-27T18:56:41.510Z,10.39
2022-09-27T18:59:09.964Z,10.40
2022-09-27T19:01:39.752Z,10.44
2022-09-27T19:04:09.026Z,10.41
2022-09-27T19:06:37.094Z,10.35
2022-09-27T19:09:05.039Z,10.43
2022-09-27T19:11:31.678Z,10.38
2022-09-27T19:13:58.965Z,10.43
2022-09-27T19:16:27.179Z,10.41
2022-09-27T19:18:54.555Z,10.36
2022-09-27T19:21:27.151Z,10.39
2022-09-27T19:23:53.933Z,10.39
2022-09-27T19:26:22.771Z,10.38
2022-09-27T19:28:50.418Z,10.34
2022-09-27T19:31:20.382Z,10.33
2022-09-27T19:33:47.593Z,10.24
2022-09-27T19:36:16.894Z,10.20
2022-09-27T19:38:44.123Z,10.13
2022-09-27T19:41:13.395Z,10.18
2022-09-27T19:43:40.852Z,10.16
2022-09-27T19:46:15.176Z,10.19
2022-09-27T19:48:43.558Z,10.00
2022-09-27T19:51:15.143Z,9.83
2022-09-27T19:53:41.976Z,9.83
2022-09-27T19:56:10.326Z,9.62
2022-09-27T19:58:39.472Z,9.40
2022-09-27T20:01:07.640Z,9.34
2022-09-27T20:03:36.434Z,9.18
2022-09-27T20:06:06.973Z,9.21
2022-09-27T20:08:33.947Z,9.09
2022-09-27T20:11:20.504Z,8.97
2022-09-27T20:13:48.078Z,8.92
2022-09-27T20:16:20.612Z,8.97
2022-09-27T20:18:48.412Z,8.99
2022-09-27T20:21:16.700Z,9.07
2022-09-27T20:23:43.681Z,9.09
2022-09-27T20:26:14.776Z,9.14
2022-09-27T20:28:43.925Z,9.22
2022-09-27T20:31:12.606Z,9.21
2022-09-27T20:33:42.275Z,9.30
2022-09-27T20:36:14.085Z,9.34
2022-09-27T20:38:42.121Z,9.37
2022-09-27T20:41:10.096Z,9.38
2022-09-27T20:43:37.438Z,9.36
2022-09-27T20:46:11.126Z,9.35
2022-09-27T20:48:38.476Z,9.35
2022-09-27T20:51:06.517Z,9.36
2022-09-27T20:53:34.050Z,9.43
2022-09-27T20:56:04.707Z,9.34
2022-09-27T20:58:32.493Z,9.20
2022-09-27T21:01:05.950Z,9.28
2022-09-27T21:03:32.729Z,9.35
2022-09-27T21:05:59.559Z,9.38
2022-09-27T21:08:30.148Z,9.45
2022-09-27T21:11:04.557Z,9.56
2022-09-27T21:13:31.102Z,9.53
2022-09-27T21:16:03.112Z,9.56
2022-09-27T21:18:30.338Z,9.59
2022-09-27T21:21:01.532Z,9.64
2022-09-27T21:23:32.199Z,9.70
2022-09-27T21:26:04.762Z,9.61
2022-09-27T21:28:32.030Z,9.65
2022-09-27T21:31:01.804Z,9.64
2022-09-27T21:33:28.490Z,9.63
2022-09-27T21:35:55.042Z,9.64
2022-09-27T21:38:21.886Z,9.64
2022-09-27T21:40:55.944Z,9.57
2022-09-27T21:43:34.169Z,9.54
2022-09-27T21:46:02.601Z,9.51
2022-09-27T21:48:30.829Z,9.58
2022-09-27T21:51:25.167Z,9.51
2022-09-27T21:53:57.092Z,9.51
2022-09-27T21:56:25.925Z,9.54
2022-09-27T21:58:52.785Z,9.56
2022-09-27T22:01:24.696Z,9.59
2022-09-27T22:03:52.694Z,9.63
2022-09-27T22:06:21.219Z,9.60
2022-09-27T22:08:49.018Z,9.67
2022-09-27T22:11:18.663Z,9.62
2022-09-27T22:13:45.765Z,9.58
2022-09-27T22:16:14.910Z,9.63
2022-09-27T22:18:46.475Z,9.68
2022-09-27T22:21:16.230Z,9.77
2022-09-27T22:23:43.062Z,9.74
2022-09-27T22:26:29.026Z,9.70
2022-09-27T22:28:56.220Z,9.70
2022-09-27T22:31:23.450Z,9.74
2022-09-27T22:33:52.270Z,9.72
2022-09-27T22:36:19.076Z,9.72
2022-09-27T22:38:45.668Z,9.75
2022-09-27T22:41:12.389Z,9.72
2022-09-27T22:43:39.964Z,9.76
2022-09-27T22:46:07.082Z,9.78
2022-09-27T22:48:34.326Z,9.76
2022-09-27T22:51:01.310Z,9.76
2022-09-27T22:53:29.327Z,9.77
2022-09-27T22:56:07.590Z,9.74
2022-09-27T22:58:36.262Z,9.77
2022-09-27T23:01:24.671Z,9.79
2022-09-27T23:03:52.969Z,9.85
2022-09-27T23:06:21.265Z,9.83
2022-09-27T23:08:48.352Z,9.79
2022-09-27T23:11:19.837Z,9.80
2022-09-27T23:13:48.109Z,9.66
2022-09-27T23:16:17.269Z,9.52
2022-09-27T23:18:44.435Z,9.54
2022-09-27T23:21:13.034Z,9.56
2022-09-27T23:23:42.103Z,9.60
2022-09-27T23:26:11.583Z,9.68
2022-09-27T23:28:38.815Z,9.72
2022-09-27T23:31:08.145Z,9.76
2022-09-27T23:33:36.842Z,9.75
2022-09-27T23:36:04.846Z,9.74
2022-09-27T23:38:32.692Z,9.79
2022-09-27T23:41:00.262Z,9.70
2022-09-27T23:43:27.387Z,9.71
2022-09-27T23:45:56.047Z,9.70
2022-09-27T23:48:24.565Z,9.74
2022-09-27T23:50:52.106Z,9.81
2022-09-27T23:53:20.356Z,9.70
2022-09-27T23:55:48.558Z,9.72
2022-09-27T23:58:15.883Z,9.68
